sensor_id;sensor_type;location;lat;lon;timestamp;temperature;humidity
43651;DHT22;29247;50.944;5.382;2022-11-02T00:01:56;15.90;69.40
43651;DHT22;29247;50.944;5.382;2022-11-02T00:04:22;15.90;69.40
43651;DHT22;29247;50.944;5.382;2022-11-02T00:06:52;15.80;69.40
43651;DHT22;29247;50.944;5.382;2022-11-02T00:09:18;15.80;69.50
43651;DHT22;29247;50.944;5.382;2022-11-02T00:11:44;15.80;69.50
43651;DHT22;29247;50.944;5.382;2022-11-02T00:14:12;15.80;69.60
43651;DHT22;29247;50.944;5.382;2022-11-02T00:16:44;15.80;69.60
43651;DHT22;29247;50.944;5.382;2022-11-02T00:19:12;15.80;69.70
43651;DHT22;29247;50.944;5.382;2022-11-02T00:21:41;15.80;69.60
43651;DHT22;29247;50.944;5.382;2022-11-02T00:24:10;15.80;69.70
43651;DHT22;29247;50.944;5.382;2022-11-02T00:26:41;15.80;70.00
43651;DHT22;29247;50.944;5.382;2022-11-02T00:29:07;15.80;70.10
43651;DHT22;29247;50.944;5.382;2022-11-02T00:31:35;15.70;70.20
43651;DHT22;29247;50.944;5.382;2022-11-02T00:34:05;15.80;70.30
43651;DHT22;29247;50.944;5.382;2022-11-02T00:36:36;15.80;70.30
43651;DHT22;29247;50.944;5.382;2022-11-02T00:39:04;15.80;70.40
43651;DHT22;29247;50.944;5.382;2022-11-02T00:41:32;15.80;70.30
43651;DHT22;29247;50.944;5.382;2022-11-02T00:43:58;15.80;70.40
43651;DHT22;29247;50.944;5.382;2022-11-02T00:46:26;15.80;70.20
43651;DHT22;29247;50.944;5.382;2022-11-02T00:48:55;15.80;70.30
43651;DHT22;29247;50.944;5.382;2022-11-02T00:51:23;15.80;70.30
43651;DHT22;29247;50.944;5.382;2022-11-02T00:53:54;15.80;70.50
43651;DHT22;29247;50.944;5.382;2022-11-02T00:56:20;15.80;70.50
43651;DHT22;29247;50.944;5.382;2022-11-02T00:58:45;15.80;70.50
43651;DHT22;29247;50.944;5.382;2022-11-02T01:01:11;15.80;70.60
43651;DHT22;29247;50.944;5.382;2022-11-02T01:03:37;15.80;70.50
43651;DHT22;29247;50.944;5.382;2022-11-02T01:06:15;15.80;70.60
43651;DHT22;29247;50.944;5.382;2022-11-02T01:08:43;15.80;70.60
43651;DHT22;29247;50.944;5.382;2022-11-02T01:11:16;15.80;70.40
43651;DHT22;29247;50.944;5.382;2022-11-02T01:13:45;15.80;70.50
43651;DHT22;29247;50.944;5.382;2022-11-02T01:16:14;15.80;70.70
43651;DHT22;29247;50.944;5.382;2022-11-02T01:18:42;15.80;71.60
43651;DHT22;29247;50.944;5.382;2022-11-02T01:21:10;15.80;70.80
43651;DHT22;29247;50.944;5.382;2022-11-02T01:23:38;15.80;70.90
43651;DHT22;29247;50.944;5.382;2022-11-02T01:26:06;15.80;71.10
43651;DHT22;29247;50.944;5.382;2022-11-02T01:28:38;15.80;71.20
43651;DHT22;29247;50.944;5.382;2022-11-02T01:31:04;15.80;71.30
43651;DHT22;29247;50.944;5.382;2022-11-02T01:33:31;15.80;71.20
43651;DHT22;29247;50.944;5.382;2022-11-02T01:35:57;15.80;71.20
43651;DHT22;29247;50.944;5.382;2022-11-02T01:38:23;15.80;71.20
43651;DHT22;29247;50.944;5.382;2022-11-02T01:40:52;15.80;71.30
43651;DHT22;29247;50.944;5.382;2022-11-02T01:43:28;15.70;71.20
43651;DHT22;29247;50.944;5.382;2022-11-02T01:48:44;15.70;71.30
43651;DHT22;29247;50.944;5.382;2022-11-02T01:51:30;15.70;71.30
43651;DHT22;29247;50.944;5.382;2022-11-02T01:54:03;15.70;71.40
43651;DHT22;29247;50.944;5.382;2022-11-02T01:56:36;15.60;71.30
43651;DHT22;29247;50.944;5.382;2022-11-02T01:59:06;15.60;71.30
43651;DHT22;29247;50.944;5.382;2022-11-02T02:01:35;15.60;71.40
43651;DHT22;29247;50.944;5.382;2022-11-02T02:04:04;15.60;71.50
43651;DHT22;29247;50.944;5.382;2022-11-02T02:06:32;15.50;71.50
43651;DHT22;29247;50.944;5.382;2022-11-02T02:09:02;15.60;71.70
43651;DHT22;29247;50.944;5.382;2022-11-02T02:11:33;15.50;71.60
43651;DHT22;29247;50.944;5.382;2022-11-02T02:14:19;15.50;71.40
43651;DHT22;29247;50.944;5.382;2022-11-02T02:19:54;15.40;71.30
43651;DHT22;29247;50.944;5.382;2022-11-02T02:33:52;15.30;70.40
43651;DHT22;29247;50.944;5.382;2022-11-02T02:36:37;15.30;70.20
43651;DHT22;29247;50.944;5.382;2022-11-02T02:39:15;15.20;70.00
43651;DHT22;29247;50.944;5.382;2022-11-02T02:44:22;15.20;69.70
43651;DHT22;29247;50.944;5.382;2022-11-02T02:46:55;15.20;69.90
43651;DHT22;29247;50.944;5.382;2022-11-02T02:49:37;15.20;69.90
43651;DHT22;29247;50.944;5.382;2022-11-02T02:52:05;15.10;69.80
43651;DHT22;29247;50.944;5.382;2022-11-02T02:54:37;15.10;69.70
43651;DHT22;29247;50.944;5.382;2022-11-02T02:57:12;15.10;69.80
43651;DHT22;29247;50.944;5.382;2022-11-02T02:59:46;15.10;70.00
43651;DHT22;29247;50.944;5.382;2022-11-02T03:02:33;15.10;69.80
43651;DHT22;29247;50.944;5.382;2022-11-02T03:05:24;15.10;70.00
43651;DHT22;29247;50.944;5.382;2022-11-02T03:07:50;15.10;70.00
43651;DHT22;29247;50.944;5.382;2022-11-02T03:10:29;15.10;70.00
43651;DHT22;29247;50.944;5.382;2022-11-02T03:15:40;15.10;70.50
43651;DHT22;29247;50.944;5.382;2022-11-02T03:21:38;15.00;70.80
43651;DHT22;29247;50.944;5.382;2022-11-02T03:29:25;15.00;71.20
43651;DHT22;29247;50.944;5.382;2022-11-02T03:32:02;15.00;71.50
43651;DHT22;29247;50.944;5.382;2022-11-02T03:34:36;15.00;71.50
43651;DHT22;29247;50.944;5.382;2022-11-02T03:40:09;15.00;71.90
43651;DHT22;29247;50.944;5.382;2022-11-02T03:42:36;14.90;72.00
43651;DHT22;29247;50.944;5.382;2022-11-02T03:45:11;15.00;72.10
43651;DHT22;29247;50.944;5.382;2022-11-02T03:47:47;14.90;72.10
43651;DHT22;29247;50.944;5.382;2022-11-02T03:50:17;14.90;72.10
43651;DHT22;29247;50.944;5.382;2022-11-02T03:52:47;14.90;72.10
43651;DHT22;29247;50.944;5.382;2022-11-02T03:55:21;14.90;72.10
43651;DHT22;29247;50.944;5.382;2022-11-02T03:57:54;14.80;72.10
43651;DHT22;29247;50.944;5.382;2022-11-02T04:00:23;14.80;72.10
43651;DHT22;29247;50.944;5.382;2022-11-02T04:02:57;14.80;72.10
43651;DHT22;29247;50.944;5.382;2022-11-02T04:05:32;14.80;72.10
43651;DHT22;29247;50.944;5.382;2022-11-02T04:08:00;14.80;72.10
43651;DHT22;29247;50.944;5.382;2022-11-02T04:10:45;14.80;72.10
43651;DHT22;29247;50.944;5.382;2022-11-02T04:13:29;14.80;72.10
43651;DHT22;29247;50.944;5.382;2022-11-02T04:16:14;14.80;72.10
43651;DHT22;29247;50.944;5.382;2022-11-02T04:18:40;14.80;72.10
43651;DHT22;29247;50.944;5.382;2022-11-02T04:21:24;14.80;72.00
43651;DHT22;29247;50.944;5.382;2022-11-02T04:23:51;14.80;72.10
43651;DHT22;29247;50.944;5.382;2022-11-02T04:26:35;14.80;72.00
43651;DHT22;29247;50.944;5.382;2022-11-02T04:29:01;14.70;71.90
43651;DHT22;29247;50.944;5.382;2022-11-02T04:31:28;14.70;71.90
43651;DHT22;29247;50.944;5.382;2022-11-02T04:33:54;14.70;71.90
43651;DHT22;29247;50.944;5.382;2022-11-02T04:36:27;14.70;71.80
43651;DHT22;29247;50.944;5.382;2022-11-02T04:38:53;14.70;71.80
43651;DHT22;29247;50.944;5.382;2022-11-02T04:41:24;14.70;71.80
43651;DHT22;29247;50.944;5.382;2022-11-02T04:44:10;14.70;71.80
43651;DHT22;29247;50.944;5.382;2022-11-02T04:46:39;14.70;71.80
43651;DHT22;29247;50.944;5.382;2022-11-02T04:49:05;14.70;71.90
43651;DHT22;29247;50.944;5.382;2022-11-02T04:51:34;14.70;71.80
43651;DHT22;29247;50.944;5.382;2022-11-02T04:54:00;14.70;71.80
43651;DHT22;29247;50.944;5.382;2022-11-02T04:56:29;14.70;71.80
43651;DHT22;29247;50.944;5.382;2022-11-02T04:58:58;14.70;71.70
43651;DHT22;29247;50.944;5.382;2022-11-02T05:01:26;14.70;71.70
43651;DHT22;29247;50.944;5.382;2022-11-02T05:03:53;14.70;71.70
43651;DHT22;29247;50.944;5.382;2022-11-02T05:06:25;14.60;71.60
43651;DHT22;29247;50.944;5.382;2022-11-02T05:08:54;14.60;71.70
43651;DHT22;29247;50.944;5.382;2022-11-02T05:11:20;14.70;71.80
43651;DHT22;29247;50.944;5.382;2022-11-02T05:13:50;14.70;71.80
43651;DHT22;29247;50.944;5.382;2022-11-02T05:16:18;14.70;71.80
43651;DHT22;29247;50.944;5.382;2022-11-02T05:18:48;14.70;71.80
43651;DHT22;29247;50.944;5.382;2022-11-02T05:21:14;14.60;71.70
43651;DHT22;29247;50.944;5.382;2022-11-02T05:23:43;14.60;71.70
43651;DHT22;29247;50.944;5.382;2022-11-02T05:26:14;14.60;71.70
43651;DHT22;29247;50.944;5.382;2022-11-02T05:28:42;14.60;71.80
43651;DHT22;29247;50.944;5.382;2022-11-02T05:31:10;14.60;71.80
43651;DHT22;29247;50.944;5.382;2022-11-02T05:33:36;14.60;71.80
43651;DHT22;29247;50.944;5.382;2022-11-02T05:36:04;14.60;71.80
43651;DHT22;29247;50.944;5.382;2022-11-02T05:38:32;14.60;71.80
43651;DHT22;29247;50.944;5.382;2022-11-02T05:40:58;14.60;71.90
43651;DHT22;29247;50.944;5.382;2022-11-02T05:43:27;14.60;71.90
43651;DHT22;29247;50.944;5.382;2022-11-02T05:45:57;14.50;71.90
43651;DHT22;29247;50.944;5.382;2022-11-02T05:48:29;14.50;71.90
43651;DHT22;29247;50.944;5.382;2022-11-02T05:50:59;14.50;72.00
43651;DHT22;29247;50.944;5.382;2022-11-02T05:53:29;14.50;72.00
43651;DHT22;29247;50.944;5.382;2022-11-02T05:56:01;14.50;72.00
43651;DHT22;29247;50.944;5.382;2022-11-02T05:58:31;14.50;72.10
43651;DHT22;29247;50.944;5.382;2022-11-02T06:01:00;14.50;72.00
43651;DHT22;29247;50.944;5.382;2022-11-02T06:03:29;14.50;72.10
43651;DHT22;29247;50.944;5.382;2022-11-02T06:06:00;14.50;72.10
43651;DHT22;29247;50.944;5.382;2022-11-02T06:08:38;14.50;72.20
43651;DHT22;29247;50.944;5.382;2022-11-02T06:11:05;14.40;72.10
43651;DHT22;29247;50.944;5.382;2022-11-02T06:13:31;14.40;72.10
43651;DHT22;29247;50.944;5.382;2022-11-02T06:16:00;14.40;72.10
43651;DHT22;29247;50.944;5.382;2022-11-02T06:18:27;14.40;72.10
43651;DHT22;29247;50.944;5.382;2022-11-02T06:20:57;14.40;72.20
43651;DHT22;29247;50.944;5.382;2022-11-02T06:23:24;14.40;72.20
43651;DHT22;29247;50.944;5.382;2022-11-02T06:25:57;14.40;72.20
43651;DHT22;29247;50.944;5.382;2022-11-02T06:28:24;14.40;72.40
43651;DHT22;29247;50.944;5.382;2022-11-02T06:30:50;14.30;72.40
43651;DHT22;29247;50.944;5.382;2022-11-02T06:33:19;14.30;72.40
43651;DHT22;29247;50.944;5.382;2022-11-02T06:35:46;14.30;72.60
43651;DHT22;29247;50.944;5.382;2022-11-02T06:38:15;14.30;72.70
43651;DHT22;29247;50.944;5.382;2022-11-02T06:40:41;14.30;72.80
43651;DHT22;29247;50.944;5.382;2022-11-02T06:43:08;14.30;72.80
43651;DHT22;29247;50.944;5.382;2022-11-02T06:45:33;14.30;72.90
43651;DHT22;29247;50.944;5.382;2022-11-02T06:48:01;14.30;73.00
43651;DHT22;29247;50.944;5.382;2022-11-02T06:50:27;14.30;73.90
43651;DHT22;29247;50.944;5.382;2022-11-02T06:52:54;14.30;73.10
43651;DHT22;29247;50.944;5.382;2022-11-02T06:55:20;14.30;73.20
43651;DHT22;29247;50.944;5.382;2022-11-02T06:57:45;14.30;73.20
43651;DHT22;29247;50.944;5.382;2022-11-02T07:00:16;14.30;73.20
43651;DHT22;29247;50.944;5.382;2022-11-02T07:02:43;14.30;73.30
43651;DHT22;29247;50.944;5.382;2022-11-02T07:05:12;14.30;73.40
43651;DHT22;29247;50.944;5.382;2022-11-02T07:07:38;14.30;73.40
43651;DHT22;29247;50.944;5.382;2022-11-02T07:10:04;14.30;73.50
43651;DHT22;29247;50.944;5.382;2022-11-02T07:12:31;14.30;73.60
43651;DHT22;29247;50.944;5.382;2022-11-02T07:14:57;14.30;73.70
43651;DHT22;29247;50.944;5.382;2022-11-02T07:17:22;14.30;73.70
43651;DHT22;29247;50.944;5.382;2022-11-02T07:19:50;14.40;73.80
43651;DHT22;29247;50.944;5.382;2022-11-02T07:22:19;14.40;73.70
43651;DHT22;29247;50.944;5.382;2022-11-02T07:24:45;14.40;73.60
43651;DHT22;29247;50.944;5.382;2022-11-02T07:27:13;14.40;73.60
43651;DHT22;29247;50.944;5.382;2022-11-02T07:29:39;14.40;73.50
43651;DHT22;29247;50.944;5.382;2022-11-02T07:32:07;14.40;73.50
43651;DHT22;29247;50.944;5.382;2022-11-02T07:34:38;14.40;73.60
43651;DHT22;29247;50.944;5.382;2022-11-02T07:37:04;14.40;73.60
43651;DHT22;29247;50.944;5.382;2022-11-02T07:39:32;14.40;73.60
43651;DHT22;29247;50.944;5.382;2022-11-02T07:42:00;14.40;73.60
43651;DHT22;29247;50.944;5.382;2022-11-02T07:44:26;14.40;73.60
43651;DHT22;29247;50.944;5.382;2022-11-02T07:46:55;14.40;73.50
43651;DHT22;29247;50.944;5.382;2022-11-02T07:49:23;14.40;73.70
43651;DHT22;29247;50.944;5.382;2022-11-02T07:51:49;14.30;73.70
43651;DHT22;29247;50.944;5.382;2022-11-02T07:54:18;14.30;73.80
43651;DHT22;29247;50.944;5.382;2022-11-02T07:56:46;14.30;73.90
43651;DHT22;29247;50.944;5.382;2022-11-02T07:59:15;14.30;73.90
43651;DHT22;29247;50.944;5.382;2022-11-02T08:01:43;14.30;73.90
43651;DHT22;29247;50.944;5.382;2022-11-02T08:04:12;14.30;73.90
43651;DHT22;29247;50.944;5.382;2022-11-02T08:06:40;14.30;74.00
43651;DHT22;29247;50.944;5.382;2022-11-02T08:09:08;14.30;74.00
43651;DHT22;29247;50.944;5.382;2022-11-02T08:11:37;14.30;74.00
43651;DHT22;29247;50.944;5.382;2022-11-02T08:14:05;14.30;74.00
43651;DHT22;29247;50.944;5.382;2022-11-02T08:16:33;14.40;74.20
43651;DHT22;29247;50.944;5.382;2022-11-02T08:19:01;14.40;74.10
43651;DHT22;29247;50.944;5.382;2022-11-02T08:21:28;14.40;74.10
43651;DHT22;29247;50.944;5.382;2022-11-02T08:23:57;14.40;74.10
43651;DHT22;29247;50.944;5.382;2022-11-02T08:26:25;14.40;74.20
43651;DHT22;29247;50.944;5.382;2022-11-02T08:28:53;14.40;74.20
43651;DHT22;29247;50.944;5.382;2022-11-02T08:31:19;14.40;74.20
43651;DHT22;29247;50.944;5.382;2022-11-02T08:33:45;14.40;74.10
43651;DHT22;29247;50.944;5.382;2022-11-02T08:36:11;14.40;74.10
43651;DHT22;29247;50.944;5.382;2022-11-02T08:38:39;14.40;74.10
43651;DHT22;29247;50.944;5.382;2022-11-02T08:41:06;14.50;74.10
43651;DHT22;29247;50.944;5.382;2022-11-02T08:43:32;14.40;74.10
43651;DHT22;29247;50.944;5.382;2022-11-02T08:45:59;14.50;74.20
43651;DHT22;29247;50.944;5.382;2022-11-02T08:48:27;14.40;74.10
43651;DHT22;29247;50.944;5.382;2022-11-02T08:50:56;14.50;74.20
43651;DHT22;29247;50.944;5.382;2022-11-02T08:53:24;14.50;74.20
43651;DHT22;29247;50.944;5.382;2022-11-02T08:55:55;14.50;74.20
43651;DHT22;29247;50.944;5.382;2022-11-02T08:58:21;14.50;74.10
43651;DHT22;29247;50.944;5.382;2022-11-02T09:00:46;14.50;74.20
43651;DHT22;29247;50.944;5.382;2022-11-02T09:03:13;14.50;74.20
43651;DHT22;29247;50.944;5.382;2022-11-02T09:05:44;14.50;74.20
43651;DHT22;29247;50.944;5.382;2022-11-02T09:08:13;14.60;74.20
43651;DHT22;29247;50.944;5.382;2022-11-02T09:10:45;14.60;74.20
43651;DHT22;29247;50.944;5.382;2022-11-02T09:13:17;14.60;74.20
43651;DHT22;29247;50.944;5.382;2022-11-02T09:15:48;14.60;74.30
43651;DHT22;29247;50.944;5.382;2022-11-02T09:18:18;14.60;74.30
43651;DHT22;29247;50.944;5.382;2022-11-02T09:20:47;14.70;74.30
43651;DHT22;29247;50.944;5.382;2022-11-02T09:23:18;14.70;74.30
43651;DHT22;29247;50.944;5.382;2022-11-02T09:25:44;14.70;74.20
43651;DHT22;29247;50.944;5.382;2022-11-02T09:28:12;14.70;74.10
43651;DHT22;29247;50.944;5.382;2022-11-02T09:30:40;14.80;74.20
43651;DHT22;29247;50.944;5.382;2022-11-02T09:33:11;14.80;74.20
43651;DHT22;29247;50.944;5.382;2022-11-02T09:35:43;14.80;74.20
43651;DHT22;29247;50.944;5.382;2022-11-02T09:38:15;14.90;74.20
43651;DHT22;29247;50.944;5.382;2022-11-02T09:41:02;14.90;74.10
43651;DHT22;29247;50.944;5.382;2022-11-02T09:46:40;15.00;74.00
43651;DHT22;29247;50.944;5.382;2022-11-02T09:49:20;15.10;73.80
43651;DHT22;29247;50.944;5.382;2022-11-02T09:51:54;15.10;73.80
43651;DHT22;29247;50.944;5.382;2022-11-02T09:54:29;15.10;73.70
43651;DHT22;29247;50.944;5.382;2022-11-02T09:57:10;15.10;73.50
43651;DHT22;29247;50.944;5.382;2022-11-02T09:59:42;15.10;73.40
43651;DHT22;29247;50.944;5.382;2022-11-02T10:02:37;15.20;73.30
43651;DHT22;29247;50.944;5.382;2022-11-02T10:10:38;15.30;73.10
43651;DHT22;29247;50.944;5.382;2022-11-02T10:15:49;15.40;72.80
43651;DHT22;29247;50.944;5.382;2022-11-02T10:18:26;15.40;72.70
43651;DHT22;29247;50.944;5.382;2022-11-02T10:21:00;15.40;72.70
43651;DHT22;29247;50.944;5.382;2022-11-02T10:23:43;15.40;72.70
43651;DHT22;29247;50.944;5.382;2022-11-02T10:26:18;15.50;72.60
43651;DHT22;29247;50.944;5.382;2022-11-02T10:28:47;15.40;72.10
43651;DHT22;29247;50.944;5.382;2022-11-02T10:31:28;15.50;72.20
43651;DHT22;29247;50.944;5.382;2022-11-02T10:33:55;15.50;72.20
43651;DHT22;29247;50.944;5.382;2022-11-02T10:36:38;15.60;72.30
43651;DHT22;29247;50.944;5.382;2022-11-02T10:39:16;15.60;72.40
43651;DHT22;29247;50.944;5.382;2022-11-02T10:47:23;15.70;71.40
43651;DHT22;29247;50.944;5.382;2022-11-02T10:52:43;15.70;71.50
43651;DHT22;29247;50.944;5.382;2022-11-02T10:55:26;15.80;72.20
43651;DHT22;29247;50.944;5.382;2022-11-02T10:57:57;15.80;71.50
43651;DHT22;29247;50.944;5.382;2022-11-02T11:00:36;15.90;71.40
43651;DHT22;29247;50.944;5.382;2022-11-02T11:05:32;15.90;71.20
43651;DHT22;29247;50.944;5.382;2022-11-02T11:07:59;16.00;71.40
43651;DHT22;29247;50.944;5.382;2022-11-02T11:10:29;16.00;71.20
43651;DHT22;29247;50.944;5.382;2022-11-02T11:12:56;16.10;71.00
43651;DHT22;29247;50.944;5.382;2022-11-02T11:15:29;16.20;70.80
43651;DHT22;29247;50.944;5.382;2022-11-02T11:18:01;16.20;70.40
43651;DHT22;29247;50.944;5.382;2022-11-02T11:20:38;16.30;69.90
43651;DHT22;29247;50.944;5.382;2022-11-02T11:23:25;16.30;69.60
43651;DHT22;29247;50.944;5.382;2022-11-02T11:26:05;16.30;69.40
43651;DHT22;29247;50.944;5.382;2022-11-02T11:28:55;16.30;69.10
43651;DHT22;29247;50.944;5.382;2022-11-02T11:31:21;16.30;69.10
43651;DHT22;29247;50.944;5.382;2022-11-02T11:33:57;16.30;69.10
43651;DHT22;29247;50.944;5.382;2022-11-02T11:36:27;16.40;69.10
43651;DHT22;29247;50.944;5.382;2022-11-02T11:38:59;16.40;68.80
43651;DHT22;29247;50.944;5.382;2022-11-02T11:41:26;16.40;68.60
43651;DHT22;29247;50.944;5.382;2022-11-02T11:43:55;16.40;68.70
43651;DHT22;29247;50.944;5.382;2022-11-02T11:46:22;16.50;69.00
43651;DHT22;29247;50.944;5.382;2022-11-02T11:48:53;16.60;68.80
43651;DHT22;29247;50.944;5.382;2022-11-02T11:51:36;16.60;68.20
43651;DHT22;29247;50.944;5.382;2022-11-02T11:54:15;16.60;68.50
43651;DHT22;29247;50.944;5.382;2022-11-02T11:56:42;16.60;67.50
43651;DHT22;29247;50.944;5.382;2022-11-02T11:59:19;16.60;67.10
43651;DHT22;29247;50.944;5.382;2022-11-02T12:01:45;16.60;67.00
43651;DHT22;29247;50.944;5.382;2022-11-02T12:04:11;16.70;66.70
43651;DHT22;29247;50.944;5.382;2022-11-02T12:07:02;16.60;66.60
43651;DHT22;29247;50.944;5.382;2022-11-02T12:09:39;16.60;66.60
43651;DHT22;29247;50.944;5.382;2022-11-02T12:15:37;16.70;67.10
43651;DHT22;29247;50.944;5.382;2022-11-02T12:26:33;16.90;66.60
43651;DHT22;29247;50.944;5.382;2022-11-02T12:32:09;16.80;66.20
43651;DHT22;29247;50.944;5.382;2022-11-02T12:40:01;16.70;65.80
43651;DHT22;29247;50.944;5.382;2022-11-02T12:42:35;16.80;65.70
43651;DHT22;29247;50.944;5.382;2022-11-02T12:45:19;16.80;65.60
43651;DHT22;29247;50.944;5.382;2022-11-02T12:47:59;16.80;65.30
43651;DHT22;29247;50.944;5.382;2022-11-02T12:53:19;16.80;64.70
43651;DHT22;29247;50.944;5.382;2022-11-02T12:55:50;16.90;64.50
43651;DHT22;29247;50.944;5.382;2022-11-02T12:58:21;16.90;64.50
43651;DHT22;29247;50.944;5.382;2022-11-02T13:00:54;16.90;64.30
43651;DHT22;29247;50.944;5.382;2022-11-02T13:05:55;16.90;63.90
43651;DHT22;29247;50.944;5.382;2022-11-02T13:08:57;16.90;63.80
43651;DHT22;29247;50.944;5.382;2022-11-02T13:11:35;16.80;63.80
43651;DHT22;29247;50.944;5.382;2022-11-02T13:14:08;16.80;64.10
43651;DHT22;29247;50.944;5.382;2022-11-02T13:19:50;16.80;63.70
43651;DHT22;29247;50.944;5.382;2022-11-02T13:22:28;16.80;63.40
43651;DHT22;29247;50.944;5.382;2022-11-02T13:25:11;16.70;63.50
43651;DHT22;29247;50.944;5.382;2022-11-02T13:27:48;16.70;63.50
43651;DHT22;29247;50.944;5.382;2022-11-02T13:30:19;16.70;63.60
43651;DHT22;29247;50.944;5.382;2022-11-02T13:32:58;16.70;63.70
43651;DHT22;29247;50.944;5.382;2022-11-02T13:35:34;16.70;63.80
43651;DHT22;29247;50.944;5.382;2022-11-02T13:46:42;16.70;63.10
43651;DHT22;29247;50.944;5.382;2022-11-02T13:49:25;16.70;62.90
43651;DHT22;29247;50.944;5.382;2022-11-02T13:52:04;16.70;62.70
43651;DHT22;29247;50.944;5.382;2022-11-02T13:54:40;16.70;62.90
43651;DHT22;29247;50.944;5.382;2022-11-02T13:59:52;16.70;62.60
43651;DHT22;29247;50.944;5.382;2022-11-02T14:02:23;16.70;62.40
43651;DHT22;29247;50.944;5.382;2022-11-02T14:04:50;16.70;62.30
43651;DHT22;29247;50.944;5.382;2022-11-02T14:07:27;16.70;62.10
43651;DHT22;29247;50.944;5.382;2022-11-02T14:10:16;16.70;61.90
43651;DHT22;29247;50.944;5.382;2022-11-02T14:12:52;16.60;61.60
43651;DHT22;29247;50.944;5.382;2022-11-02T14:25:55;16.40;60.90
43651;DHT22;29247;50.944;5.382;2022-11-02T14:47:29;16.30;61.60
43651;DHT22;29247;50.944;5.382;2022-11-02T14:50:06;16.30;61.50
43651;DHT22;29247;50.944;5.382;2022-11-02T14:52:36;16.30;61.50
43651;DHT22;29247;50.944;5.382;2022-11-02T14:55:21;16.30;61.50
43651;DHT22;29247;50.944;5.382;2022-11-02T14:57:57;16.20;61.60
43651;DHT22;29247;50.944;5.382;2022-11-02T15:00:39;16.30;61.40
43651;DHT22;29247;50.944;5.382;2022-11-02T15:06:21;16.20;61.20
43651;DHT22;29247;50.944;5.382;2022-11-02T15:08:57;16.20;61.20
43651;DHT22;29247;50.944;5.382;2022-11-02T15:11:45;16.20;61.20
43651;DHT22;29247;50.944;5.382;2022-11-02T15:19:46;16.10;61.30
43651;DHT22;29247;50.944;5.382;2022-11-02T15:22:33;16.10;61.50
43651;DHT22;29247;50.944;5.382;2022-11-02T15:25:12;16.10;61.60
43651;DHT22;29247;50.944;5.382;2022-11-02T15:27:45;16.00;61.50
43651;DHT22;29247;50.944;5.382;2022-11-02T15:30:20;16.00;61.40
43651;DHT22;29247;50.944;5.382;2022-11-02T15:32:52;16.00;61.40
43651;DHT22;29247;50.944;5.382;2022-11-02T15:35:33;16.00;61.30
43651;DHT22;29247;50.944;5.382;2022-11-02T15:38:04;15.90;61.50
43651;DHT22;29247;50.944;5.382;2022-11-02T15:40:50;15.90;61.40
43651;DHT22;29247;50.944;5.382;2022-11-02T15:51:59;15.80;61.80
43651;DHT22;29247;50.944;5.382;2022-11-02T15:57:45;15.70;62.10
43651;DHT22;29247;50.944;5.382;2022-11-02T16:00:23;15.60;62.10
43651;DHT22;29247;50.944;5.382;2022-11-02T16:03:02;15.60;62.00
43651;DHT22;29247;50.944;5.382;2022-11-02T16:05:41;15.60;62.10
43651;DHT22;29247;50.944;5.382;2022-11-02T16:08:40;15.50;62.20
43651;DHT22;29247;50.944;5.382;2022-11-02T16:11:16;15.50;62.20
43651;DHT22;29247;50.944;5.382;2022-11-02T16:13:43;15.40;62.10
43651;DHT22;29247;50.944;5.382;2022-11-02T16:16:16;15.40;62.30
43651;DHT22;29247;50.944;5.382;2022-11-02T16:18:47;15.30;62.30
43651;DHT22;29247;50.944;5.382;2022-11-02T16:21:16;15.30;62.40
43651;DHT22;29247;50.944;5.382;2022-11-02T16:23:48;15.30;62.60
43651;DHT22;29247;50.944;5.382;2022-11-02T16:26:17;15.30;62.70
43651;DHT22;29247;50.944;5.382;2022-11-02T16:28:51;15.20;62.80
43651;DHT22;29247;50.944;5.382;2022-11-02T16:31:20;15.20;63.00
43651;DHT22;29247;50.944;5.382;2022-11-02T16:36:33;15.10;63.20
43651;DHT22;29247;50.944;5.382;2022-11-02T16:39:02;15.00;63.20
43651;DHT22;29247;50.944;5.382;2022-11-02T16:41:33;15.00;63.30
43651;DHT22;29247;50.944;5.382;2022-11-02T16:44:08;15.00;63.50
43651;DHT22;29247;50.944;5.382;2022-11-02T16:46:59;14.90;63.60
43651;DHT22;29247;50.944;5.382;2022-11-02T16:49:57;14.90;63.70
43651;DHT22;29247;50.944;5.382;2022-11-02T16:54:51;14.80;63.80
43651;DHT22;29247;50.944;5.382;2022-11-02T17:02:34;14.80;64.40
43651;DHT22;29247;50.944;5.382;2022-11-02T17:05:03;14.70;64.50
43651;DHT22;29247;50.944;5.382;2022-11-02T17:07:46;14.70;64.50
43651;DHT22;29247;50.944;5.382;2022-11-02T17:10:25;14.70;64.80
43651;DHT22;29247;50.944;5.382;2022-11-02T17:12:52;14.60;64.90
43651;DHT22;29247;50.944;5.382;2022-11-02T17:15:27;14.60;65.00
43651;DHT22;29247;50.944;5.382;2022-11-02T17:20:48;14.50;65.30
43651;DHT22;29247;50.944;5.382;2022-11-02T17:23:35;14.50;65.30
43651;DHT22;29247;50.944;5.382;2022-11-02T17:28:52;14.50;65.70
43651;DHT22;29247;50.944;5.382;2022-11-02T17:31:39;14.50;65.40
43651;DHT22;29247;50.944;5.382;2022-11-02T17:34:18;14.50;65.80
43651;DHT22;29247;50.944;5.382;2022-11-02T17:36:48;14.40;66.50
43651;DHT22;29247;50.944;5.382;2022-11-02T17:39:19;14.40;65.80
43651;DHT22;29247;50.944;5.382;2022-11-02T17:41:51;14.40;66.00
43651;DHT22;29247;50.944;5.382;2022-11-02T17:44:35;14.30;66.10
43651;DHT22;29247;50.944;5.382;2022-11-02T17:47:14;14.30;66.10
43651;DHT22;29247;50.944;5.382;2022-11-02T17:49:41;14.30;66.40
43651;DHT22;29247;50.944;5.382;2022-11-02T17:52:12;14.30;66.50
43651;DHT22;29247;50.944;5.382;2022-11-02T17:54:38;14.20;66.50
43651;DHT22;29247;50.944;5.382;2022-11-02T17:57:09;14.20;66.50
43651;DHT22;29247;50.944;5.382;2022-11-02T17:59:35;14.20;66.60
43651;DHT22;29247;50.944;5.382;2022-11-02T18:02:01;14.20;66.60
43651;DHT22;29247;50.944;5.382;2022-11-02T18:04:33;14.20;66.60
43651;DHT22;29247;50.944;5.382;2022-11-02T18:06:58;14.10;66.70
43651;DHT22;29247;50.944;5.382;2022-11-02T18:09:26;14.10;66.80
43651;DHT22;29247;50.944;5.382;2022-11-02T18:11:55;14.10;67.00
43651;DHT22;29247;50.944;5.382;2022-11-02T18:14:23;14.00;67.10
43651;DHT22;29247;50.944;5.382;2022-11-02T18:16:51;14.00;67.20
43651;DHT22;29247;50.944;5.382;2022-11-02T18:19:17;14.00;67.40
43651;DHT22;29247;50.944;5.382;2022-11-02T18:21:43;14.00;67.50
43651;DHT22;29247;50.944;5.382;2022-11-02T18:24:11;14.00;67.70
43651;DHT22;29247;50.944;5.382;2022-11-02T18:26:39;13.90;67.80
43651;DHT22;29247;50.944;5.382;2022-11-02T18:29:06;14.00;67.80
43651;DHT22;29247;50.944;5.382;2022-11-02T18:31:33;13.90;67.80
43651;DHT22;29247;50.944;5.382;2022-11-02T18:34:01;13.90;68.00
43651;DHT22;29247;50.944;5.382;2022-11-02T18:36:27;13.90;68.00
43651;DHT22;29247;50.944;5.382;2022-11-02T18:38:53;13.90;68.20
43651;DHT22;29247;50.944;5.382;2022-11-02T18:41:23;13.90;68.30